DNO575 HDAM-FGSL
Flight info
| Callsign | DNO575 |
|---|---|
| Flight time | N/A |
| Altitude | 38000 |
| Route | LAKBE1P LAKBE B535 GWZ UT139 GETIN T139 DASTU L558 ASKON UT139 MPK UR984 NLY SAKNI1A |
| Aircraft | A346/H-SDE2E3FGHIJ3J4J5M1RWXY/LB1D1 |
Departure
| Time | 2026-04-27 16:21 |
|---|---|
| Airport | Djibouti-Ambouli Airport (HDAM) |
Arrival
| Time | N/A |
|---|---|
| Airport | Malabo International Airport (FGSL) |
| Time | Latitude | Longitude | Altitude | Speed | Heading |
|---|---|---|---|---|---|
| 2026-04-27 15:56 | 11.54457 | 43.16242 | 37 ft | 0 kts | 92° |
| 2026-04-27 16:13 | 11.54464 | 43.16256 | 37 ft | 5 kts | 41° |
| 2026-04-27 16:13 | 11.54504 | 43.16264 | 37 ft | 8 kts | 5° |
| 2026-04-27 16:14 | 11.54556 | 43.16323 | 35 ft | 9 kts | 87° |
| 2026-04-27 16:14 | 11.54560 | 43.16471 | 35 ft | 7 kts | 73° |
| 2026-04-27 16:15 | 11.54693 | 43.16509 | 33 ft | 14 kts | 348° |
| 2026-04-27 16:15 | 11.54730 | 43.16326 | 36 ft | 15 kts | 270° |
| 2026-04-27 16:16 | 11.54733 | 43.16097 | 37 ft | 18 kts | 271° |
| 2026-04-27 16:16 | 11.54738 | 43.15821 | 42 ft | 20 kts | 270° |
| 2026-04-27 16:17 | 11.54741 | 43.15512 | 45 ft | 23 kts | 270° |
| 2026-04-27 16:17 | 11.54746 | 43.15176 | 49 ft | 25 kts | 271° |
| 2026-04-27 16:18 | 11.54752 | 43.14813 | 52 ft | 26 kts | 270° |
| 2026-04-27 16:18 | 11.54759 | 43.14617 | 49 ft | 11 kts | 292° |
| 2026-04-27 16:19 | 11.54779 | 43.14544 | 53 ft | 7 kts | 243° |
| 2026-04-27 16:19 | 11.54760 | 43.14543 | 50 ft | 3 kts | 126° |
| 2026-04-27 16:20 | 11.54754 | 43.14604 | 48 ft | 21 kts | 91° |
| 2026-04-27 16:20 | 11.54749 | 43.14998 | 50 ft | 88 kts | 91° |
| 2026-04-27 16:20 | 11.54726 | 43.17005 | 135 ft | 180 kts | 90° |
| 2026-04-27 16:21 | 11.54713 | 43.18307 | 683 ft | 185 kts | 90° |
| 2026-04-27 16:21 | 11.52956 | 43.21608 | 2440 ft | 198 kts | 155° |
| 2026-04-27 16:22 | 11.51577 | 43.21815 | 2871 ft | 207 kts | 182° |
| 2026-04-27 16:22 | 11.48678 | 43.20838 | 3486 ft | 232 kts | 197° |
| 2026-04-27 16:22 | 11.47053 | 43.20518 | 3683 ft | 247 kts | 182° |
| 2026-04-27 16:23 | 11.45277 | 43.20373 | 3916 ft | 264 kts | 181° |
| 2026-04-27 16:23 | 11.41519 | 43.20243 | 4381 ft | 273 kts | 179° |
| 2026-04-27 16:23 | 11.39616 | 43.20267 | 4553 ft | 274 kts | 178° |
| 2026-04-27 16:24 | 11.37705 | 43.20232 | 4744 ft | 275 kts | 181° |
| 2026-04-27 16:24 | 11.33851 | 43.20106 | 5131 ft | 278 kts | 179° |
| 2026-04-27 16:25 | 11.29877 | 43.20113 | 6127 ft | 287 kts | 182° |
| 2026-04-27 16:25 | 11.26210 | 43.18685 | 7616 ft | 290 kts | 219° |
| 2026-04-27 16:26 | 11.23616 | 43.15501 | 8973 ft | 295 kts | 231° |
| 2026-04-27 16:26 | 11.20944 | 43.12214 | 10114 ft | 306 kts | 226° |
| 2026-04-27 16:27 | 11.17920 | 43.08927 | 10853 ft | 332 kts | 226° |
| 2026-04-27 16:27 | 11.12893 | 43.03416 | 11641 ft | 378 kts | 226° |
| 2026-04-27 16:28 | 11.09201 | 42.99402 | 12573 ft | 394 kts | 226° |
| 2026-04-27 16:28 | 11.05843 | 42.94954 | 13763 ft | 403 kts | 246° |
| 2026-04-27 16:29 | 11.04955 | 42.86437 | 15486 ft | 411 kts | 270° |
| 2026-04-27 16:30 | 11.04921 | 42.80557 | 16550 ft | 418 kts | 269° |
| 2026-04-27 16:30 | 11.04845 | 42.74586 | 17615 ft | 424 kts | 269° |
| 2026-04-27 16:31 | 11.04719 | 42.65457 | 18989 ft | 433 kts | 269° |
| 2026-04-27 16:31 | 11.04631 | 42.59274 | 19849 ft | 440 kts | 269° |
| 2026-04-27 16:32 | 11.04543 | 42.53000 | 20703 ft | 445 kts | 269° |
| 2026-04-27 16:32 | 11.04499 | 42.49880 | 21135 ft | 448 kts | 269° |
| 2026-04-27 16:33 | 11.04405 | 42.43470 | 21902 ft | 456 kts | 269° |
| 2026-04-27 16:33 | 11.04358 | 42.40228 | 22310 ft | 459 kts | 269° |
| 2026-04-27 16:33 | 11.04312 | 42.36971 | 22753 ft | 461 kts | 269° |
| 2026-04-27 16:33 | 11.04263 | 42.33692 | 23126 ft | 464 kts | 269° |
| 2026-04-27 16:34 | 11.04213 | 42.30390 | 23468 ft | 468 kts | 269° |
| 2026-04-27 16:34 | 11.04163 | 42.27057 | 23778 ft | 471 kts | 269° |
| 2026-04-27 16:34 | 11.04110 | 42.23542 | 24186 ft | 472 kts | 269° |
| 2026-04-27 16:34 | 11.04026 | 42.20193 | 24524 ft | 474 kts | 266° |
| 2026-04-27 16:35 | 11.03517 | 42.16859 | 24804 ft | 478 kts | 256° |
| 2026-04-27 16:35 | 11.02474 | 42.13649 | 25196 ft | 478 kts | 247° |
| 2026-04-27 16:35 | 10.99300 | 42.07675 | 25877 ft | 482 kts | 240° |
| 2026-04-27 16:36 | 10.97597 | 42.04708 | 26194 ft | 485 kts | 239° |
| 2026-04-27 16:36 | 10.95891 | 42.01736 | 26523 ft | 487 kts | 240° |
| 2026-04-27 16:36 | 10.94186 | 41.98751 | 26839 ft | 490 kts | 240° |
| 2026-04-27 16:36 | 10.92473 | 41.95740 | 27175 ft | 491 kts | 240° |
| 2026-04-27 16:37 | 10.90758 | 41.92719 | 27491 ft | 493 kts | 240° |
| 2026-04-27 16:37 | 10.89039 | 41.89685 | 27845 ft | 495 kts | 240° |
| 2026-04-27 16:37 | 10.87323 | 41.86655 | 28322 ft | 493 kts | 240° |
| 2026-04-27 16:37 | 10.85613 | 41.83638 | 28793 ft | 492 kts | 240° |
| 2026-04-27 16:38 | 10.83901 | 41.80613 | 29236 ft | 491 kts | 240° |
| 2026-04-27 16:38 | 10.82195 | 41.77603 | 29694 ft | 490 kts | 240° |
| 2026-04-27 16:38 | 10.80491 | 41.74593 | 30085 ft | 489 kts | 240° |
| 2026-04-27 16:38 | 10.78789 | 41.71590 | 30461 ft | 488 kts | 240° |
| 2026-04-27 16:39 | 10.77090 | 41.68598 | 30866 ft | 487 kts | 240° |
| 2026-04-27 16:39 | 10.75419 | 41.65655 | 31260 ft | 486 kts | 240° |
| 2026-04-27 16:39 | 10.73730 | 41.62677 | 31672 ft | 484 kts | 241° |
| 2026-04-27 16:39 | 10.72050 | 41.59716 | 32107 ft | 482 kts | 241° |
| 2026-04-27 16:40 | 10.70374 | 41.56762 | 32493 ft | 482 kts | 241° |
| 2026-04-27 16:40 | 10.68700 | 41.53808 | 32896 ft | 481 kts | 241° |
| 2026-04-27 16:40 | 10.67030 | 41.50865 | 33320 ft | 479 kts | 241° |
| 2026-04-27 16:40 | 10.65366 | 41.47934 | 33744 ft | 477 kts | 242° |
| 2026-04-27 16:41 | 10.63705 | 41.45008 | 34103 ft | 476 kts | 242° |
| 2026-04-27 16:41 | 10.62048 | 41.42086 | 34413 ft | 477 kts | 242° |
| 2026-04-27 16:41 | 10.60384 | 41.39157 | 34661 ft | 478 kts | 241° |
| 2026-04-27 16:41 | 10.58714 | 41.36227 | 34901 ft | 480 kts | 241° |
| 2026-04-27 16:42 | 10.57036 | 41.33288 | 35154 ft | 481 kts | 241° |
| 2026-04-27 16:42 | 10.55356 | 41.30343 | 35420 ft | 481 kts | 241° |
| 2026-04-27 16:42 | 10.53670 | 41.27387 | 35680 ft | 482 kts | 241° |
| 2026-04-27 16:42 | 10.51983 | 41.24432 | 35805 ft | 484 kts | 241° |
| 2026-04-27 16:43 | 10.50290 | 41.21466 | 35803 ft | 484 kts | 241° |
| 2026-04-27 16:43 | 10.46909 | 41.15544 | 35809 ft | 483 kts | 241° |
| 2026-04-27 16:44 | 10.43555 | 41.09668 | 35813 ft | 483 kts | 241° |
| 2026-04-27 16:44 | 10.40183 | 41.03766 | 35812 ft | 482 kts | 241° |
| 2026-04-27 16:45 | 10.36815 | 40.97871 | 35814 ft | 482 kts | 241° |
| 2026-04-27 16:45 | 10.33439 | 40.91967 | 35815 ft | 482 kts | 241° |
| 2026-04-27 16:46 | 10.30068 | 40.86063 | 35809 ft | 483 kts | 240° |
| 2026-04-27 16:46 | 10.26680 | 40.80150 | 35812 ft | 484 kts | 240° |
| 2026-04-27 16:47 | 10.23284 | 40.74222 | 35814 ft | 485 kts | 240° |
| 2026-04-27 16:47 | 10.19909 | 40.68333 | 35820 ft | 485 kts | 240° |
| 2026-04-27 16:48 | 10.16514 | 40.62410 | 35822 ft | 485 kts | 240° |
| 2026-04-27 16:48 | 10.13118 | 40.56488 | 35821 ft | 485 kts | 240° |
| 2026-04-27 16:49 | 10.08018 | 40.47602 | 35833 ft | 485 kts | 240° |
| 2026-04-27 16:49 | 10.04619 | 40.41679 | 35838 ft | 485 kts | 240° |
| 2026-04-27 16:50 | 10.01218 | 40.35758 | 35851 ft | 485 kts | 240° |
| 2026-04-27 16:50 | 9.97821 | 40.29843 | 35853 ft | 485 kts | 240° |
| 2026-04-27 16:51 | 9.94993 | 40.24925 | 35867 ft | 485 kts | 240° |
| 2026-04-27 16:51 | 9.91603 | 40.18995 | 35888 ft | 484 kts | 240° |
| 2026-04-27 16:52 | 9.88240 | 40.13071 | 35888 ft | 484 kts | 240° |
| 2026-04-27 16:52 | 9.84873 | 40.07137 | 35912 ft | 484 kts | 240° |
| 2026-04-27 16:53 | 9.81506 | 40.01204 | 35945 ft | 485 kts | 240° |
| 2026-04-27 16:53 | 9.78139 | 39.95277 | 35944 ft | 485 kts | 240° |
| 2026-04-27 16:54 | 9.74764 | 39.89342 | 35973 ft | 485 kts | 240° |
| 2026-04-27 16:54 | 9.71392 | 39.83414 | 36008 ft | 485 kts | 240° |
| 2026-04-27 16:55 | 9.68014 | 39.77478 | 36004 ft | 486 kts | 240° |
| 2026-04-27 16:55 | 9.64651 | 39.71571 | 36029 ft | 487 kts | 240° |
| 2026-04-27 16:56 | 9.61238 | 39.65578 | 36055 ft | 487 kts | 240° |
| 2026-04-27 16:56 | 9.57874 | 39.59672 | 36055 ft | 486 kts | 240° |
| 2026-04-27 16:57 | 9.54486 | 39.53731 | 36071 ft | 487 kts | 240° |
| 2026-04-27 16:57 | 9.51095 | 39.47788 | 36082 ft | 486 kts | 240° |
| 2026-04-27 16:58 | 9.47708 | 39.41852 | 36078 ft | 486 kts | 239° |
| 2026-04-27 16:58 | 9.44316 | 39.35912 | 36073 ft | 486 kts | 239° |
| 2026-04-27 16:59 | 9.40921 | 39.29970 | 36070 ft | 487 kts | 240° |
| 2026-04-27 16:59 | 9.37524 | 39.24026 | 36066 ft | 487 kts | 240° |
| 2026-04-27 17:00 | 9.32429 | 39.15115 | 36065 ft | 486 kts | 239° |
| 2026-04-27 17:01 | 9.29057 | 39.09222 | 36058 ft | 486 kts | 240° |
| 2026-04-27 17:01 | 9.25665 | 39.03295 | 36055 ft | 486 kts | 240° |
| 2026-04-27 17:02 | 9.22278 | 38.97376 | 36050 ft | 486 kts | 240° |
| 2026-04-27 17:02 | 9.18884 | 38.91448 | 36041 ft | 486 kts | 240° |
| 2026-04-27 17:03 | 9.15492 | 38.85530 | 36041 ft | 485 kts | 240° |
| 2026-04-27 17:03 | 9.13851 | 38.82541 | 36209 ft | 485 kts | 243° |
| 2026-04-27 17:03 | 9.12362 | 38.79464 | 36224 ft | 487 kts | 246° |
| 2026-04-27 17:04 | 9.09903 | 38.73072 | 36229 ft | 487 kts | 252° |
| 2026-04-27 17:04 | 9.08146 | 38.66452 | 36200 ft | 486 kts | 257° |
| 2026-04-27 17:05 | 9.06625 | 38.59744 | 36155 ft | 487 kts | 257° |
| 2026-04-27 17:05 | 9.05106 | 38.53055 | 36102 ft | 487 kts | 257° |
| 2026-04-27 17:06 | 9.03589 | 38.46414 | 36047 ft | 487 kts | 257° |
| 2026-04-27 17:06 | 9.02050 | 38.39701 | 36021 ft | 487 kts | 257° |
| 2026-04-27 17:07 | 9.00516 | 38.33016 | 36027 ft | 487 kts | 257° |
| 2026-04-27 17:07 | 8.98983 | 38.26341 | 36034 ft | 487 kts | 257° |
| 2026-04-27 17:08 | 8.97448 | 38.19661 | 36030 ft | 487 kts | 257° |
| 2026-04-27 17:08 | 8.95911 | 38.12973 | 36032 ft | 487 kts | 257° |
| 2026-04-27 17:09 | 8.94373 | 38.06286 | 36040 ft | 487 kts | 257° |
| 2026-04-27 17:09 | 8.92829 | 37.99613 | 36040 ft | 486 kts | 257° |
| 2026-04-27 17:10 | 8.91271 | 37.92949 | 36038 ft | 486 kts | 257° |
| 2026-04-27 17:10 | 8.89712 | 37.86271 | 36042 ft | 486 kts | 257° |
| 2026-04-27 17:11 | 8.88154 | 37.79600 | 36036 ft | 486 kts | 257° |
| 2026-04-27 17:11 | 8.85829 | 37.69638 | 36029 ft | 487 kts | 257° |
| 2026-04-27 17:12 | 8.83487 | 37.59615 | 36013 ft | 487 kts | 257° |
| 2026-04-27 17:13 | 8.81924 | 37.52932 | 36016 ft | 487 kts | 257° |
| 2026-04-27 17:13 | 8.80359 | 37.46251 | 36000 ft | 487 kts | 257° |
| 2026-04-27 17:14 | 8.78794 | 37.39574 | 35988 ft | 487 kts | 257° |
| 2026-04-27 17:14 | 8.77230 | 37.32894 | 35980 ft | 487 kts | 257° |
| 2026-04-27 17:15 | 8.75664 | 37.26212 | 35978 ft | 487 kts | 257° |
| 2026-04-27 17:15 | 8.74098 | 37.19533 | 35970 ft | 487 kts | 257° |
| 2026-04-27 17:16 | 8.72530 | 37.12855 | 35957 ft | 487 kts | 257° |
| 2026-04-27 17:16 | 8.71029 | 37.06167 | 35952 ft | 487 kts | 258° |
| 2026-04-27 17:17 | 8.69552 | 36.99456 | 35953 ft | 487 kts | 258° |
| 2026-04-27 17:17 | 8.68084 | 36.92799 | 35950 ft | 487 kts | 258° |
| 2026-04-27 17:18 | 8.65863 | 36.82761 | 35952 ft | 487 kts | 257° |
| 2026-04-27 17:18 | 8.64377 | 36.76061 | 35953 ft | 487 kts | 257° |
| 2026-04-27 17:19 | 8.62893 | 36.69369 | 35955 ft | 488 kts | 257° |
| 2026-04-27 17:19 | 8.61401 | 36.62651 | 35953 ft | 489 kts | 257° |
| 2026-04-27 17:20 | 8.59908 | 36.55934 | 35949 ft | 489 kts | 257° |
| 2026-04-27 17:20 | 8.58423 | 36.49260 | 35958 ft | 489 kts | 257° |
| 2026-04-27 17:21 | 8.56933 | 36.42559 | 35964 ft | 487 kts | 257° |
| 2026-04-27 17:21 | 8.55440 | 36.35864 | 35963 ft | 487 kts | 257° |